createdAt,value
2023-05-14T00:03:13.760Z,10.22
2023-05-14T00:08:17.746Z,10.21
2023-05-14T00:13:21.707Z,10.18
2023-05-14T00:18:30.441Z,10.25
2023-05-14T00:23:34.563Z,10.23
2023-05-14T00:28:38.543Z,10.15
2023-05-14T00:33:43.811Z,10.15
2023-05-14T00:38:47.803Z,10.13
2023-05-14T00:43:52.385Z,10.11
2023-05-14T00:48:58.474Z,10.19
2023-05-14T00:54:02.607Z,10.18
2023-05-14T00:59:06.717Z,10.19
2023-05-14T01:04:13.608Z,10.18
2023-05-14T01:09:25.280Z,10.16
2023-05-14T01:14:38.420Z,10.14
2023-05-14T01:19:45.709Z,10.22
2023-05-14T01:24:50.979Z,10.22
2023-05-14T01:30:00.521Z,10.32
2023-05-14T01:35:05.476Z,10.25
2023-05-14T01:40:12.111Z,10.24
2023-05-14T01:45:16.465Z,10.28
2023-05-14T01:50:20.418Z,10.27
2023-05-14T01:55:29.387Z,10.23
2023-05-14T02:06:01.704Z,10.25
2023-05-14T02:11:10.303Z,10.29
2023-05-14T02:16:17.417Z,10.32
2023-05-14T02:21:21.594Z,10.32
2023-05-14T02:26:27.000Z,10.27
2023-05-14T02:31:33.505Z,10.22
2023-05-14T02:36:37.413Z,10.12
2023-05-14T02:41:43.073Z,10.05
2023-05-14T02:46:47.036Z,9.94
2023-05-14T02:51:51.826Z,9.89
2023-05-14T02:56:57.214Z,9.91
2023-05-14T03:02:01.170Z,9.82
2023-05-14T03:07:06.074Z,9.81
2023-05-14T03:12:12.707Z,9.73
2023-05-14T03:17:16.630Z,9.65
2023-05-14T03:22:20.766Z,9.63
2023-05-14T03:27:26.357Z,9.55
2023-05-14T03:32:30.911Z,9.42
2023-05-14T03:37:35.007Z,9.44
2023-05-14T03:42:40.258Z,9.50
2023-05-14T03:47:44.210Z,9.57
2023-05-14T03:52:48.914Z,9.66
2023-05-14T03:57:54.266Z,9.83
2023-05-14T04:02:58.520Z,10.03
2023-05-14T04:08:02.635Z,10.21
2023-05-14T04:13:09.375Z,10.14
2023-05-14T04:18:16.104Z,10.40
2023-05-14T04:23:22.877Z,10.57
2023-05-14T04:28:28.231Z,10.70
2023-05-14T04:33:32.172Z,10.79
2023-05-14T04:38:36.103Z,10.95
2023-05-14T04:43:41.443Z,11.05
2023-05-14T04:48:45.467Z,11.36
2023-05-14T04:53:49.506Z,11.54
2023-05-14T04:58:54.818Z,11.38
2023-05-14T05:03:58.797Z,11.29
2023-05-14T05:09:02.870Z,11.28
2023-05-14T05:14:08.145Z,11.59
2023-05-14T05:19:12.166Z,11.49
2023-05-14T05:24:16.105Z,11.40
2023-05-14T05:29:21.427Z,11.47
2023-05-14T05:34:25.374Z,11.51
2023-05-14T05:39:34.762Z,11.51
2023-05-14T05:44:40.350Z,11.68
2023-05-14T05:49:45.493Z,11.78
2023-05-14T05:54:49.388Z,11.72
2023-05-14T05:59:54.781Z,11.61
2023-05-14T06:04:58.729Z,11.18
2023-05-14T06:10:02.876Z,11.28
2023-05-14T06:15:09.455Z,11.52
2023-05-14T06:20:14.050Z,11.32
2023-05-14T06:25:18.121Z,10.90
2023-05-14T06:30:23.831Z,10.44
2023-05-14T06:35:27.967Z,9.99
2023-05-14T06:40:32.112Z,9.75
2023-05-14T06:45:37.417Z,9.77
2023-05-14T06:50:41.526Z,9.76
2023-05-14T06:55:48.812Z,10.11
2023-05-14T07:00:54.116Z,10.09
2023-05-14T07:06:01.353Z,10.18
2023-05-14T07:11:05.368Z,10.10
2023-05-14T07:16:11.318Z,10.24
2023-05-14T07:21:15.278Z,10.31
2023-05-14T07:26:19.190Z,10.36
2023-05-14T07:31:24.621Z,10.39
2023-05-14T07:36:28.644Z,10.38
2023-05-14T07:41:32.565Z,10.57
2023-05-14T07:46:38.045Z,10.75
2023-05-14T07:51:41.973Z,10.33
2023-05-14T07:56:45.962Z,10.21
2023-05-14T08:01:51.336Z,9.93
2023-05-14T08:06:55.548Z,10.04
2023-05-14T08:11:59.467Z,9.93
2023-05-14T08:17:05.071Z,9.73
2023-05-14T08:22:09.030Z,9.58
2023-05-14T08:27:12.915Z,9.40
2023-05-14T08:32:23.390Z,9.49
2023-05-14T08:37:28.198Z,9.78
2023-05-14T08:42:32.854Z,9.67
2023-05-14T08:47:38.720Z,9.96
2023-05-14T08:52:42.848Z,10.18
2023-05-14T08:57:47.229Z,10.14
2023-05-14T09:02:53.485Z,10.20
2023-05-14T09:07:57.450Z,10.18
2023-05-14T09:13:01.356Z,10.24
2023-05-14T09:18:08.327Z,10.29
2023-05-14T09:23:12.415Z,10.42
2023-05-14T09:28:18.594Z,10.65
2023-05-14T09:33:29.117Z,10.43
2023-05-14T09:38:33.577Z,10.49
2023-05-14T09:43:37.565Z,10.70
2023-05-14T09:48:42.902Z,10.94
2023-05-14T09:53:46.953Z,10.95
2023-05-14T09:58:50.978Z,10.62
2023-05-14T10:03:57.109Z,10.79
2023-05-14T10:09:05.715Z,10.90
2023-05-14T10:14:18.064Z,10.82
2023-05-14T10:19:26.384Z,10.71
2023-05-14T10:24:31.380Z,10.51
2023-05-14T10:29:36.273Z,10.34
2023-05-14T10:34:44.302Z,10.42
2023-05-14T10:45:24.231Z,10.26
2023-05-14T10:50:30.758Z,10.06
2023-05-14T10:55:35.306Z,10.06
2023-05-14T11:00:40.257Z,9.91
2023-05-14T11:05:45.981Z,10.17
2023-05-14T11:10:50.556Z,9.70
2023-05-14T11:15:54.714Z,9.73
2023-05-14T11:21:01.882Z,9.73
2023-05-14T11:26:06.108Z,9.80
2023-05-14T11:31:10.899Z,9.78
2023-05-14T11:36:16.258Z,9.96
2023-05-14T11:41:23.311Z,10.20
2023-05-14T11:46:30.140Z,10.44
2023-05-14T11:51:37.895Z,10.69
2023-05-14T11:56:41.968Z,11.16
2023-05-14T12:01:47.330Z,11.40
2023-05-14T12:06:54.834Z,11.38
2023-05-14T12:11:58.763Z,11.43
2023-05-14T12:17:03.351Z,11.15
2023-05-14T12:22:11.011Z,11.41
2023-05-14T12:27:15.083Z,11.23
2023-05-14T12:32:20.016Z,11.23
2023-05-14T12:37:26.463Z,11.64
2023-05-14T12:42:30.386Z,11.57
2023-05-14T12:47:34.780Z,11.55
2023-05-14T12:52:40.255Z,11.63
2023-05-14T12:57:44.257Z,11.56
2023-05-14T13:02:48.296Z,11.81
2023-05-14T13:07:54.348Z,11.75
2023-05-14T13:12:58.283Z,11.73
2023-05-14T13:18:02.277Z,11.85
2023-05-14T13:23:07.878Z,12.01
2023-05-14T13:28:11.853Z,12.37
2023-05-14T13:33:15.821Z,12.45
2023-05-14T13:38:21.128Z,12.42
2023-05-14T13:43:27.162Z,12.24
2023-05-14T13:48:31.581Z,12.28
2023-05-14T13:53:40.110Z,11.91
2023-05-14T13:58:44.045Z,11.61
2023-05-14T14:03:48.140Z,11.45
2023-05-14T14:08:53.470Z,11.41
2023-05-14T14:13:57.369Z,11.30
2023-05-14T14:19:01.286Z,11.29
2023-05-14T14:24:07.377Z,11.26
2023-05-14T14:29:11.270Z,11.15
2023-05-14T14:34:15.208Z,11.05
2023-05-14T14:39:24.554Z,10.92
2023-05-14T14:44:28.591Z,10.88
2023-05-14T14:49:32.464Z,10.84
2023-05-14T14:54:37.757Z,10.85
2023-05-14T14:59:41.721Z,10.78
2023-05-14T15:04:45.680Z,10.84
2023-05-14T15:09:51.014Z,10.80
2023-05-14T15:14:54.953Z,10.77
2023-05-14T15:19:58.858Z,10.60
2023-05-14T15:25:04.824Z,10.67
2023-05-14T15:30:09.931Z,10.75
2023-05-14T15:35:14.073Z,10.45
2023-05-14T15:40:20.489Z,10.57
2023-05-14T15:45:24.671Z,10.40
2023-05-14T15:50:28.636Z,10.44
2023-05-14T15:55:34.079Z,10.31
2023-05-14T16:00:37.956Z,10.30
2023-05-14T16:05:42.822Z,10.32
2023-05-14T16:10:48.134Z,10.28
2023-05-14T16:15:52.253Z,10.23
2023-05-14T16:20:56.362Z,10.28
2023-05-14T16:26:01.644Z,10.29
2023-05-14T16:31:05.674Z,10.17
2023-05-14T16:36:09.722Z,10.22
2023-05-14T16:41:14.993Z,10.23
2023-05-14T16:46:19.134Z,10.32
2023-05-14T16:51:23.032Z,10.14
2023-05-14T16:56:29.371Z,10.05
2023-05-14T17:01:33.404Z,10.05
2023-05-14T17:06:37.429Z,10.04
2023-05-14T17:11:42.736Z,10.12
2023-05-14T17:16:46.707Z,10.12
2023-05-14T17:21:50.890Z,9.95
2023-05-14T17:26:56.226Z,9.89
2023-05-14T17:32:00.350Z,9.90
2023-05-14T17:37:04.321Z,9.94
2023-05-14T17:42:11.371Z,9.83
2023-05-14T17:47:15.333Z,9.81
2023-05-14T17:52:19.309Z,9.82
2023-05-14T17:57:24.692Z,9.82
2023-05-14T18:02:28.749Z,9.75
2023-05-14T18:07:32.797Z,9.51
2023-05-14T18:12:38.070Z,9.79
2023-05-14T18:17:42.277Z,9.49
2023-05-14T18:22:46.268Z,9.52
2023-05-14T18:27:51.585Z,9.56
2023-05-14T18:32:55.462Z,9.43
2023-05-14T18:37:59.295Z,9.39
2023-05-14T18:43:04.550Z,9.42
2023-05-14T18:48:08.535Z,9.63
2023-05-14T18:53:12.544Z,9.54
2023-05-14T18:58:17.827Z,9.68
2023-05-14T19:03:21.808Z,9.76
2023-05-14T19:08:25.752Z,9.77
2023-05-14T19:13:31.018Z,9.74
2023-05-14T19:18:35.178Z,9.77
2023-05-14T19:23:39.466Z,9.78
2023-05-14T19:28:44.726Z,9.81
2023-05-14T19:33:48.639Z,9.75
2023-05-14T19:38:52.561Z,9.88
2023-05-14T19:43:57.828Z,9.86
2023-05-14T19:49:01.823Z,9.95
2023-05-14T19:54:05.776Z,9.94
2023-05-14T19:59:11.013Z,10.05
2023-05-14T20:04:16.230Z,9.93
2023-05-14T20:09:20.129Z,10.03
2023-05-14T20:14:25.438Z,10.09
2023-05-14T20:19:29.364Z,9.93
2023-05-14T20:24:33.228Z,9.97
2023-05-14T20:29:38.531Z,9.90
2023-05-14T20:34:42.479Z,10.04
2023-05-14T20:39:46.615Z,10.00
2023-05-14T20:44:52.314Z,9.89
2023-05-14T20:49:56.215Z,9.99
2023-05-14T20:55:01.847Z,9.86
2023-05-14T21:00:10.019Z,9.89
2023-05-14T21:05:15.035Z,9.85
2023-05-14T21:10:18.967Z,9.87
2023-05-14T21:15:24.569Z,9.90
2023-05-14T21:20:28.626Z,9.87
2023-05-14T21:25:32.679Z,9.93
2023-05-14T21:30:38.040Z,9.89
2023-05-14T21:35:42.116Z,10.03
2023-05-14T21:40:45.990Z,9.95
2023-05-14T21:45:51.291Z,10.09
2023-05-14T21:50:55.239Z,10.00
2023-05-14T21:55:59.177Z,9.99
2023-05-14T22:01:04.530Z,10.02
2023-05-14T22:06:08.825Z,10.14
2023-05-14T22:11:12.724Z,10.27
2023-05-14T22:16:18.047Z,10.18
2023-05-14T22:21:21.990Z,10.24
2023-05-14T22:26:25.849Z,10.12
2023-05-14T22:31:31.174Z,10.19
2023-05-14T22:36:35.169Z,10.12
2023-05-14T22:41:39.042Z,10.10
2023-05-14T22:46:44.438Z,10.05
2023-05-14T22:51:48.380Z,9.90
2023-05-14T22:56:52.514Z,9.97
2023-05-14T23:01:57.895Z,9.69
2023-05-14T23:07:01.953Z,9.83
2023-05-14T23:12:06.590Z,9.65
2023-05-14T23:17:11.903Z,9.79
2023-05-14T23:22:16.003Z,9.89
2023-05-14T23:27:22.694Z,9.83
2023-05-14T23:32:28.123Z,9.72
2023-05-14T23:37:33.629Z,9.79
2023-05-14T23:42:37.632Z,9.56
2023-05-14T23:47:43.260Z,9.50
2023-05-14T23:52:47.408Z,9.48
2023-05-14T23:57:51.518Z,9.39
